sensor_id;sensor_type;location;lat;lon;timestamp;P1;durP1;ratioP1;P2;durP2;ratioP2
41434;SDS011;27177;22.262;114.192;2022-09-09T00:05:12;13.55;;;6.18;;
41434;SDS011;27177;22.262;114.192;2022-09-09T00:07:52;10.73;;;6.68;;
41434;SDS011;27177;22.262;114.192;2022-09-09T00:10:24;9.70;;;6.43;;
41434;SDS011;27177;22.262;114.192;2022-09-09T00:12:59;10.95;;;7.13;;
41434;SDS011;27177;22.262;114.192;2022-09-09T00:15:50;10.85;;;6.75;;
41434;SDS011;27177;22.262;114.192;2022-09-09T00:18:44;13.30;;;7.32;;
41434;SDS011;27177;22.262;114.192;2022-09-09T00:21:32;9.93;;;6.80;;
41434;SDS011;27177;22.262;114.192;2022-09-09T00:26:43;11.77;;;7.07;;
41434;SDS011;27177;22.262;114.192;2022-09-09T00:31:50;13.73;;;7.32;;
41434;SDS011;27177;22.262;114.192;2022-09-09T00:34:23;10.93;;;6.55;;
41434;SDS011;27177;22.262;114.192;2022-09-09T00:36:52;9.85;;;6.22;;
41434;SDS011;27177;22.262;114.192;2022-09-09T00:39:31;10.43;;;6.97;;
41434;SDS011;27177;22.262;114.192;2022-09-09T01:19:40;12.75;;;7.07;;
41434;SDS011;27177;22.262;114.192;2022-09-09T01:27:26;9.80;;;6.18;;
41434;SDS011;27177;22.262;114.192;2022-09-09T01:29:53;9.10;;;6.93;;
41434;SDS011;27177;22.262;114.192;2022-09-09T01:35:10;11.05;;;6.53;;
41434;SDS011;27177;22.262;114.192;2022-09-09T01:37:55;8.25;;;6.53;;
41434;SDS011;27177;22.262;114.192;2022-09-09T01:40:23;12.05;;;6.38;;
41434;SDS011;27177;22.262;114.192;2022-09-09T01:42:52;9.93;;;5.72;;
41434;SDS011;27177;22.262;114.192;2022-09-09T01:45:20;12.18;;;6.63;;
41434;SDS011;27177;22.262;114.192;2022-09-09T01:47:48;14.23;;;6.88;;
41434;SDS011;27177;22.262;114.192;2022-09-09T01:50:20;12.07;;;7.03;;
41434;SDS011;27177;22.262;114.192;2022-09-09T01:52:49;10.82;;;6.57;;
41434;SDS011;27177;22.262;114.192;2022-09-09T01:55:21;8.07;;;6.65;;
41434;SDS011;27177;22.262;114.192;2022-09-09T01:58:11;13.43;;;6.90;;
41434;SDS011;27177;22.262;114.192;2022-09-09T02:03:52;13.20;;;7.03;;
41434;SDS011;27177;22.262;114.192;2022-09-09T02:06:26;14.90;;;7.03;;
41434;SDS011;27177;22.262;114.192;2022-09-09T02:08:57;8.48;;;6.78;;
41434;SDS011;27177;22.262;114.192;2022-09-09T02:11:27;8.00;;;6.38;;
41434;SDS011;27177;22.262;114.192;2022-09-09T02:14:02;10.70;;;7.22;;
41434;SDS011;27177;22.262;114.192;2022-09-09T02:16:38;10.85;;;7.38;;
41434;SDS011;27177;22.262;114.192;2022-09-09T02:21:52;10.18;;;6.97;;
41434;SDS011;27177;22.262;114.192;2022-09-09T02:24:21;12.10;;;7.10;;
41434;SDS011;27177;22.262;114.192;2022-09-09T02:26:49;11.43;;;6.95;;
41434;SDS011;27177;22.262;114.192;2022-09-09T02:29:20;11.20;;;7.25;;
41434;SDS011;27177;22.262;114.192;2022-09-09T02:31:55;10.88;;;6.70;;
41434;SDS011;27177;22.262;114.192;2022-09-09T02:34:28;9.70;;;6.68;;
41434;SDS011;27177;22.262;114.192;2022-09-09T02:36:58;13.20;;;8.10;;
41434;SDS011;27177;22.262;114.192;2022-09-09T02:42:03;15.05;;;7.65;;
41434;SDS011;27177;22.262;114.192;2022-09-09T02:44:34;11.48;;;7.10;;
41434;SDS011;27177;22.262;114.192;2022-09-09T02:54:54;17.73;;;8.10;;
41434;SDS011;27177;22.262;114.192;2022-09-09T02:59:58;14.23;;;7.38;;
41434;SDS011;27177;22.262;114.192;2022-09-09T03:02:30;14.80;;;8.02;;
41434;SDS011;27177;22.262;114.192;2022-09-09T03:04:57;12.35;;;8.15;;
41434;SDS011;27177;22.262;114.192;2022-09-09T03:07:24;10.27;;;7.15;;
41434;SDS011;27177;22.262;114.192;2022-09-09T03:15:01;12.30;;;7.45;;
41434;SDS011;27177;22.262;114.192;2022-09-09T03:19:57;9.35;;;6.60;;
41434;SDS011;27177;22.262;114.192;2022-09-09T03:25:06;9.88;;;7.43;;
41434;SDS011;27177;22.262;114.192;2022-09-09T03:27:34;9.82;;;6.90;;
41434;SDS011;27177;22.262;114.192;2022-09-09T03:30:01;15.48;;;8.30;;
41434;SDS011;27177;22.262;114.192;2022-09-09T03:32:28;13.95;;;7.15;;
41434;SDS011;27177;22.262;114.192;2022-09-09T03:37:31;9.40;;;7.22;;
41434;SDS011;27177;22.262;114.192;2022-09-09T03:39:59;14.20;;;7.68;;
41434;SDS011;27177;22.262;114.192;2022-09-09T04:09:26;12.05;;;7.63;;
41434;SDS011;27177;22.262;114.192;2022-09-09T04:14:29;10.55;;;7.63;;
41434;SDS011;27177;22.262;114.192;2022-09-09T04:19:33;10.65;;;7.53;;
41434;SDS011;27177;22.262;114.192;2022-09-09T04:22:00;10.65;;;7.45;;
41434;SDS011;27177;22.262;114.192;2022-09-09T04:24:30;10.57;;;6.93;;
41434;SDS011;27177;22.262;114.192;2022-09-09T04:29:32;9.70;;;7.15;;
41434;SDS011;27177;22.262;114.192;2022-09-09T04:32:00;10.70;;;7.38;;
41434;SDS011;27177;22.262;114.192;2022-09-09T04:34:28;8.68;;;6.82;;
41434;SDS011;27177;22.262;114.192;2022-09-09T04:36:56;12.02;;;7.07;;
41434;SDS011;27177;22.262;114.192;2022-09-09T04:39:25;11.73;;;7.68;;
41434;SDS011;27177;22.262;114.192;2022-09-09T04:41:52;11.05;;;7.35;;
41434;SDS011;27177;22.262;114.192;2022-09-09T04:44:19;12.80;;;7.57;;
41434;SDS011;27177;22.262;114.192;2022-09-09T04:46:46;12.90;;;7.40;;
41434;SDS011;27177;22.262;114.192;2022-09-09T04:49:13;11.20;;;7.72;;
41434;SDS011;27177;22.262;114.192;2022-09-09T04:51:40;13.40;;;7.95;;
41434;SDS011;27177;22.262;114.192;2022-09-09T04:54:08;10.93;;;7.45;;
41434;SDS011;27177;22.262;114.192;2022-09-09T04:56:36;11.45;;;7.68;;
41434;SDS011;27177;22.262;114.192;2022-09-09T04:59:02;13.82;;;8.07;;
41434;SDS011;27177;22.262;114.192;2022-09-09T05:01:31;12.02;;;7.60;;
41434;SDS011;27177;22.262;114.192;2022-09-09T05:03:58;9.50;;;7.57;;
41434;SDS011;27177;22.262;114.192;2022-09-09T05:06:25;13.90;;;7.88;;
41434;SDS011;27177;22.262;114.192;2022-09-09T05:08:52;14.50;;;7.85;;
41434;SDS011;27177;22.262;114.192;2022-09-09T05:11:23;14.15;;;7.80;;
41434;SDS011;27177;22.262;114.192;2022-09-09T05:14:05;10.27;;;7.03;;
41434;SDS011;27177;22.262;114.192;2022-09-09T05:16:32;11.65;;;7.97;;
41434;SDS011;27177;22.262;114.192;2022-09-09T05:18:59;10.05;;;7.38;;
41434;SDS011;27177;22.262;114.192;2022-09-09T05:21:28;13.32;;;7.75;;
41434;SDS011;27177;22.262;114.192;2022-09-09T05:23:57;11.45;;;7.70;;
41434;SDS011;27177;22.262;114.192;2022-09-09T05:26:25;13.07;;;8.70;;
41434;SDS011;27177;22.262;114.192;2022-09-09T05:28:54;13.35;;;8.50;;
41434;SDS011;27177;22.262;114.192;2022-09-09T05:31:22;12.30;;;8.15;;
41434;SDS011;27177;22.262;114.192;2022-09-09T05:33:53;11.65;;;7.93;;
41434;SDS011;27177;22.262;114.192;2022-09-09T05:36:22;12.50;;;7.45;;
41434;SDS011;27177;22.262;114.192;2022-09-09T05:38:49;9.70;;;7.72;;
41434;SDS011;27177;22.262;114.192;2022-09-09T05:41:19;11.18;;;7.38;;
41434;SDS011;27177;22.262;114.192;2022-09-09T05:43:48;13.18;;;8.70;;
41434;SDS011;27177;22.262;114.192;2022-09-09T05:46:17;11.43;;;8.02;;
41434;SDS011;27177;22.262;114.192;2022-09-09T05:48:46;11.40;;;8.25;;
41434;SDS011;27177;22.262;114.192;2022-09-09T05:51:19;12.52;;;8.50;;
41434;SDS011;27177;22.262;114.192;2022-09-09T05:53:49;11.73;;;8.38;;
41434;SDS011;27177;22.262;114.192;2022-09-09T05:56:17;12.48;;;8.60;;
41434;SDS011;27177;22.262;114.192;2022-09-09T05:58:50;11.63;;;7.95;;
41434;SDS011;27177;22.262;114.192;2022-09-09T06:01:20;10.18;;;7.82;;
41434;SDS011;27177;22.262;114.192;2022-09-09T06:03:59;13.82;;;7.72;;
41434;SDS011;27177;22.262;114.192;2022-09-09T06:06:30;15.82;;;9.23;;
41434;SDS011;27177;22.262;114.192;2022-09-09T06:09:02;10.70;;;7.80;;
41434;SDS011;27177;22.262;114.192;2022-09-09T06:11:35;11.48;;;8.55;;
41434;SDS011;27177;22.262;114.192;2022-09-09T06:14:05;11.15;;;8.50;;
41434;SDS011;27177;22.262;114.192;2022-09-09T06:16:32;13.48;;;8.40;;
41434;SDS011;27177;22.262;114.192;2022-09-09T06:19:00;15.50;;;8.50;;
41434;SDS011;27177;22.262;114.192;2022-09-09T06:21:29;11.75;;;8.55;;
41434;SDS011;27177;22.262;114.192;2022-09-09T06:24:03;13.90;;;8.80;;
41434;SDS011;27177;22.262;114.192;2022-09-09T06:26:33;13.30;;;8.52;;
41434;SDS011;27177;22.262;114.192;2022-09-09T06:29:03;14.98;;;8.75;;
41434;SDS011;27177;22.262;114.192;2022-09-09T06:31:31;13.40;;;8.38;;
41434;SDS011;27177;22.262;114.192;2022-09-09T06:33:59;14.50;;;8.77;;
41434;SDS011;27177;22.262;114.192;2022-09-09T06:36:32;17.48;;;9.00;;
41434;SDS011;27177;22.262;114.192;2022-09-09T06:39:02;16.20;;;9.73;;
41434;SDS011;27177;22.262;114.192;2022-09-09T06:44:00;11.40;;;8.23;;
41434;SDS011;27177;22.262;114.192;2022-09-09T06:46:29;14.20;;;7.88;;
41434;SDS011;27177;22.262;114.192;2022-09-09T06:48:58;10.73;;;8.35;;
41434;SDS011;27177;22.262;114.192;2022-09-09T06:51:27;13.88;;;9.07;;
41434;SDS011;27177;22.262;114.192;2022-09-09T06:53:56;14.10;;;9.53;;
41434;SDS011;27177;22.262;114.192;2022-09-09T06:58:54;12.35;;;8.75;;
41434;SDS011;27177;22.262;114.192;2022-09-09T07:01:25;18.88;;;10.18;;
41434;SDS011;27177;22.262;114.192;2022-09-09T07:03:55;13.63;;;9.02;;
41434;SDS011;27177;22.262;114.192;2022-09-09T07:06:25;12.88;;;9.18;;
41434;SDS011;27177;22.262;114.192;2022-09-09T07:08:55;13.52;;;9.13;;
41434;SDS011;27177;22.262;114.192;2022-09-09T07:11:25;12.53;;;9.20;;
41434;SDS011;27177;22.262;114.192;2022-09-09T07:13:54;12.43;;;9.02;;
41434;SDS011;27177;22.262;114.192;2022-09-09T07:16:27;12.32;;;8.85;;
41434;SDS011;27177;22.262;114.192;2022-09-09T07:18:56;13.23;;;9.15;;
41434;SDS011;27177;22.262;114.192;2022-09-09T07:21:24;11.70;;;9.50;;
41434;SDS011;27177;22.262;114.192;2022-09-09T07:23:55;12.55;;;9.63;;
41434;SDS011;27177;22.262;114.192;2022-09-09T07:26:25;11.65;;;8.95;;
41434;SDS011;27177;22.262;114.192;2022-09-09T07:28:57;12.77;;;9.95;;
41434;SDS011;27177;22.262;114.192;2022-09-09T07:31:30;13.60;;;9.10;;
41434;SDS011;27177;22.262;114.192;2022-09-09T07:34:05;12.43;;;9.88;;
41434;SDS011;27177;22.262;114.192;2022-09-09T07:36:36;12.52;;;8.93;;
41434;SDS011;27177;22.262;114.192;2022-09-09T07:39:14;13.10;;;9.88;;
41434;SDS011;27177;22.262;114.192;2022-09-09T07:41:46;13.18;;;9.32;;
41434;SDS011;27177;22.262;114.192;2022-09-09T07:44:16;13.23;;;8.98;;
41434;SDS011;27177;22.262;114.192;2022-09-09T07:46:50;12.48;;;9.88;;
41434;SDS011;27177;22.262;114.192;2022-09-09T07:49:19;13.32;;;9.02;;
41434;SDS011;27177;22.262;114.192;2022-09-09T07:51:48;18.67;;;8.98;;
41434;SDS011;27177;22.262;114.192;2022-09-09T07:54:28;16.13;;;9.07;;
41434;SDS011;27177;22.262;114.192;2022-09-09T07:57:17;14.05;;;9.25;;
41434;SDS011;27177;22.262;114.192;2022-09-09T07:59:55;13.05;;;9.13;;
41434;SDS011;27177;22.262;114.192;2022-09-09T08:02:25;15.98;;;9.77;;
41434;SDS011;27177;22.262;114.192;2022-09-09T08:05:16;16.42;;;9.98;;
41434;SDS011;27177;22.262;114.192;2022-09-09T08:08:14;13.55;;;9.40;;
41434;SDS011;27177;22.262;114.192;2022-09-09T08:11:14;13.90;;;10.45;;
41434;SDS011;27177;22.262;114.192;2022-09-09T08:14:03;14.15;;;10.07;;
41434;SDS011;27177;22.262;114.192;2022-09-09T08:16:51;12.10;;;9.93;;
41434;SDS011;27177;22.262;114.192;2022-09-09T08:22:50;13.95;;;9.85;;
41434;SDS011;27177;22.262;114.192;2022-09-09T08:25:35;14.27;;;9.10;;
41434;SDS011;27177;22.262;114.192;2022-09-09T08:28:14;14.02;;;9.77;;
41434;SDS011;27177;22.262;114.192;2022-09-09T08:30:51;10.73;;;8.90;;
41434;SDS011;27177;22.262;114.192;2022-09-09T08:33:39;17.70;;;9.35;;
41434;SDS011;27177;22.262;114.192;2022-09-09T09:10:50;12.18;;;8.63;;
41434;SDS011;27177;22.262;114.192;2022-09-09T09:13:20;9.95;;;7.63;;
41434;SDS011;27177;22.262;114.192;2022-09-09T10:03:49;12.60;;;8.98;;
41434;SDS011;27177;22.262;114.192;2022-09-09T10:06:33;12.75;;;9.00;;
41434;SDS011;27177;22.262;114.192;2022-09-09T10:09:04;12.80;;;10.38;;
41434;SDS011;27177;22.262;114.192;2022-09-09T10:14:21;14.05;;;9.38;;
41434;SDS011;27177;22.262;114.192;2022-09-09T10:19:51;18.88;;;9.93;;
41434;SDS011;27177;22.262;114.192;2022-09-09T10:22:39;12.95;;;9.15;;
41434;SDS011;27177;22.262;114.192;2022-09-09T10:28:33;15.52;;;10.65;;
41434;SDS011;27177;22.262;114.192;2022-09-09T10:31:45;16.25;;;10.45;;
41434;SDS011;27177;22.262;114.192;2022-09-09T10:37:33;16.88;;;10.93;;
41434;SDS011;27177;22.262;114.192;2022-09-09T10:43:04;19.85;;;11.02;;
41434;SDS011;27177;22.262;114.192;2022-09-09T10:49:08;20.00;;;12.60;;
41434;SDS011;27177;22.262;114.192;2022-09-09T10:55:13;14.05;;;11.13;;
41434;SDS011;27177;22.262;114.192;2022-09-09T10:57:48;13.73;;;12.07;;
41434;SDS011;27177;22.262;114.192;2022-09-09T11:03:28;16.98;;;11.90;;
41434;SDS011;27177;22.262;114.192;2022-09-09T11:06:00;15.07;;;12.10;;
41434;SDS011;27177;22.262;114.192;2022-09-09T11:08:35;17.00;;;12.80;;
41434;SDS011;27177;22.262;114.192;2022-09-09T11:19:37;15.07;;;11.75;;
41434;SDS011;27177;22.262;114.192;2022-09-09T11:22:17;13.93;;;11.90;;
41434;SDS011;27177;22.262;114.192;2022-09-09T11:30:52;18.88;;;12.90;;
41434;SDS011;27177;22.262;114.192;2022-09-09T11:44:52;16.23;;;11.98;;
41434;SDS011;27177;22.262;114.192;2022-09-09T11:52:46;17.67;;;12.32;;
41434;SDS011;27177;22.262;114.192;2022-09-09T11:58:03;17.15;;;13.15;;
41434;SDS011;27177;22.262;114.192;2022-09-09T12:00:50;16.73;;;12.60;;
41434;SDS011;27177;22.262;114.192;2022-09-09T12:06:24;16.52;;;11.75;;
41434;SDS011;27177;22.262;114.192;2022-09-09T12:08:53;20.02;;;12.43;;
41434;SDS011;27177;22.262;114.192;2022-09-09T12:11:26;14.75;;;12.20;;
41434;SDS011;27177;22.262;114.192;2022-09-09T12:13:55;16.00;;;12.10;;
41434;SDS011;27177;22.262;114.192;2022-09-09T12:16:31;14.02;;;12.05;;
41434;SDS011;27177;22.262;114.192;2022-09-09T12:19:16;18.33;;;11.82;;
41434;SDS011;27177;22.262;114.192;2022-09-09T12:32:36;16.65;;;12.52;;
41434;SDS011;27177;22.262;114.192;2022-09-09T12:37:47;18.88;;;12.52;;
41434;SDS011;27177;22.262;114.192;2022-09-09T12:40:19;16.05;;;12.05;;
41434;SDS011;27177;22.262;114.192;2022-09-09T12:42:48;14.37;;;12.37;;
41434;SDS011;27177;22.262;114.192;2022-09-09T12:45:21;15.10;;;12.50;;
41434;SDS011;27177;22.262;114.192;2022-09-09T12:47:57;15.80;;;12.45;;
41434;SDS011;27177;22.262;114.192;2022-09-09T12:50:31;16.45;;;13.30;;
41434;SDS011;27177;22.262;114.192;2022-09-09T12:53:12;17.23;;;12.85;;
41434;SDS011;27177;22.262;114.192;2022-09-09T12:56:03;19.48;;;12.85;;
41434;SDS011;27177;22.262;114.192;2022-09-09T12:58:36;16.63;;;13.35;;
41434;SDS011;27177;22.262;114.192;2022-09-09T13:01:06;18.85;;;13.77;;
41434;SDS011;27177;22.262;114.192;2022-09-09T13:03:55;15.60;;;13.35;;
41434;SDS011;27177;22.262;114.192;2022-09-09T13:06:26;16.95;;;13.70;;
41434;SDS011;27177;22.262;114.192;2022-09-09T13:08:58;17.85;;;12.73;;
41434;SDS011;27177;22.262;114.192;2022-09-09T13:11:40;17.15;;;13.35;;
41434;SDS011;27177;22.262;114.192;2022-09-09T13:14:16;16.60;;;13.50;;
41434;SDS011;27177;22.262;114.192;2022-09-09T13:17:05;18.45;;;12.25;;
41434;SDS011;27177;22.262;114.192;2022-09-09T13:19:45;19.23;;;14.35;;
41434;SDS011;27177;22.262;114.192;2022-09-09T13:22:30;17.75;;;13.43;;
41434;SDS011;27177;22.262;114.192;2022-09-09T13:25:05;15.73;;;13.95;;
41434;SDS011;27177;22.262;114.192;2022-09-09T13:27:33;22.20;;;14.30;;
41434;SDS011;27177;22.262;114.192;2022-09-09T13:38:26;17.85;;;13.75;;
41434;SDS011;27177;22.262;114.192;2022-09-09T13:40:58;18.45;;;14.40;;
41434;SDS011;27177;22.262;114.192;2022-09-09T13:43:43;17.30;;;14.73;;
41434;SDS011;27177;22.262;114.192;2022-09-09T13:46:25;16.48;;;13.57;;
41434;SDS011;27177;22.262;114.192;2022-09-09T13:51:37;16.00;;;14.15;;
41434;SDS011;27177;22.262;114.192;2022-09-09T13:54:17;18.02;;;15.05;;
41434;SDS011;27177;22.262;114.192;2022-09-09T13:56:45;17.23;;;14.85;;
41434;SDS011;27177;22.262;114.192;2022-09-09T13:59:16;16.83;;;14.05;;
41434;SDS011;27177;22.262;114.192;2022-09-09T14:01:45;17.50;;;15.30;;
41434;SDS011;27177;22.262;114.192;2022-09-09T14:04:20;16.88;;;15.18;;
41434;SDS011;27177;22.262;114.192;2022-09-09T14:06:52;19.13;;;15.40;;
41434;SDS011;27177;22.262;114.192;2022-09-09T14:09:20;17.90;;;15.38;;
41434;SDS011;27177;22.262;114.192;2022-09-09T14:11:49;19.25;;;15.93;;
41434;SDS011;27177;22.262;114.192;2022-09-09T14:14:20;18.98;;;15.82;;
41434;SDS011;27177;22.262;114.192;2022-09-09T14:16:47;18.50;;;16.33;;
41434;SDS011;27177;22.262;114.192;2022-09-09T14:19:14;17.70;;;15.73;;
41434;SDS011;27177;22.262;114.192;2022-09-09T14:21:43;19.38;;;16.77;;
41434;SDS011;27177;22.262;114.192;2022-09-09T14:24:10;19.45;;;15.73;;
41434;SDS011;27177;22.262;114.192;2022-09-09T14:29:13;19.02;;;17.00;;
41434;SDS011;27177;22.262;114.192;2022-09-09T14:31:40;19.95;;;15.82;;
41434;SDS011;27177;22.262;114.192;2022-09-09T14:34:08;19.65;;;17.35;;
41434;SDS011;27177;22.262;114.192;2022-09-09T14:36:40;19.08;;;16.77;;
41434;SDS011;27177;22.262;114.192;2022-09-09T14:39:07;19.53;;;16.20;;
41434;SDS011;27177;22.262;114.192;2022-09-09T14:41:35;19.48;;;17.10;;
41434;SDS011;27177;22.262;114.192;2022-09-09T14:44:03;18.67;;;15.95;;
41434;SDS011;27177;22.262;114.192;2022-09-09T14:46:35;22.42;;;17.45;;
41434;SDS011;27177;22.262;114.192;2022-09-09T14:49:02;19.00;;;16.50;;
41434;SDS011;27177;22.262;114.192;2022-09-09T14:51:30;19.20;;;16.40;;
41434;SDS011;27177;22.262;114.192;2022-09-09T14:56:32;20.58;;;17.77;;
41434;SDS011;27177;22.262;114.192;2022-09-09T15:32:41;22.70;;;17.25;;
41434;SDS011;27177;22.262;114.192;2022-09-09T15:55:54;23.05;;;17.98;;
41434;SDS011;27177;22.262;114.192;2022-09-09T15:58:21;22.95;;;18.38;;
41434;SDS011;27177;22.262;114.192;2022-09-09T16:00:48;24.92;;;18.88;;
41434;SDS011;27177;22.262;114.192;2022-09-09T16:03:16;20.45;;;18.13;;
41434;SDS011;27177;22.262;114.192;2022-09-09T16:05:45;21.33;;;18.80;;
41434;SDS011;27177;22.262;114.192;2022-09-09T16:08:21;24.50;;;17.30;;
41434;SDS011;27177;22.262;114.192;2022-09-09T16:10:51;19.58;;;17.45;;
41434;SDS011;27177;22.262;114.192;2022-09-09T16:13:23;20.40;;;17.92;;
41434;SDS011;27177;22.262;114.192;2022-09-09T16:15:54;21.73;;;17.75;;
41434;SDS011;27177;22.262;114.192;2022-09-09T16:18:21;22.43;;;18.20;;
41434;SDS011;27177;22.262;114.192;2022-09-09T16:20:55;22.42;;;18.15;;
41434;SDS011;27177;22.262;114.192;2022-09-09T16:23:24;20.23;;;17.73;;
41434;SDS011;27177;22.262;114.192;2022-09-09T16:25:54;20.38;;;18.30;;
41434;SDS011;27177;22.262;114.192;2022-09-09T16:28:22;25.10;;;19.42;;
41434;SDS011;27177;22.262;114.192;2022-09-09T16:30:49;23.60;;;19.05;;
41434;SDS011;27177;22.262;114.192;2022-09-09T16:33:17;23.17;;;19.38;;
41434;SDS011;27177;22.262;114.192;2022-09-09T16:35:44;22.80;;;18.77;;
41434;SDS011;27177;22.262;114.192;2022-09-09T16:38:11;21.30;;;19.02;;
41434;SDS011;27177;22.262;114.192;2022-09-09T16:40:38;20.73;;;18.48;;
41434;SDS011;27177;22.262;114.192;2022-09-09T16:43:07;22.55;;;17.50;;
41434;SDS011;27177;22.262;114.192;2022-09-09T16:45:41;21.45;;;18.48;;
41434;SDS011;27177;22.262;114.192;2022-09-09T16:48:09;22.10;;;18.92;;
41434;SDS011;27177;22.262;114.192;2022-09-09T16:50:37;21.00;;;18.77;;
41434;SDS011;27177;22.262;114.192;2022-09-09T16:53:05;19.42;;;17.20;;
41434;SDS011;27177;22.262;114.192;2022-09-09T16:55:38;21.08;;;16.27;;
41434;SDS011;27177;22.262;114.192;2022-09-09T16:58:07;20.05;;;17.85;;
41434;SDS011;27177;22.262;114.192;2022-09-09T17:00:38;19.58;;;17.45;;
41434;SDS011;27177;22.262;114.192;2022-09-09T17:03:05;19.80;;;17.73;;
41434;SDS011;27177;22.262;114.192;2022-09-09T17:05:32;19.15;;;17.15;;
41434;SDS011;27177;22.262;114.192;2022-09-09T17:08:05;20.20;;;17.73;;
41434;SDS011;27177;22.262;114.192;2022-09-09T17:10:39;21.67;;;18.48;;
41434;SDS011;27177;22.262;114.192;2022-09-09T17:13:07;19.48;;;17.38;;
41434;SDS011;27177;22.262;114.192;2022-09-09T17:15:43;21.58;;;18.08;;
41434;SDS011;27177;22.262;114.192;2022-09-09T17:18:11;22.17;;;17.52;;
41434;SDS011;27177;22.262;114.192;2022-09-09T17:20:40;20.90;;;18.17;;
41434;SDS011;27177;22.262;114.192;2022-09-09T17:23:08;19.13;;;16.95;;
41434;SDS011;27177;22.262;114.192;2022-09-09T17:25:37;22.60;;;17.50;;
41434;SDS011;27177;22.262;114.192;2022-09-09T17:28:04;21.25;;;17.73;;
41434;SDS011;27177;22.262;114.192;2022-09-09T17:30:34;21.00;;;17.40;;
41434;SDS011;27177;22.262;114.192;2022-09-09T17:33:05;21.50;;;16.70;;
41434;SDS011;27177;22.262;114.192;2022-09-09T17:35:32;21.88;;;16.90;;
41434;SDS011;27177;22.262;114.192;2022-09-09T17:37:59;23.38;;;17.40;;
41434;SDS011;27177;22.262;114.192;2022-09-09T17:40:26;22.00;;;18.88;;
41434;SDS011;27177;22.262;114.192;2022-09-09T17:42:55;20.25;;;17.33;;
41434;SDS011;27177;22.262;114.192;2022-09-09T17:45:22;21.90;;;18.23;;
41434;SDS011;27177;22.262;114.192;2022-09-09T17:47:50;19.63;;;17.52;;
41434;SDS011;27177;22.262;114.192;2022-09-09T17:50:20;20.35;;;17.38;;
41434;SDS011;27177;22.262;114.192;2022-09-09T17:52:47;24.00;;;17.90;;
41434;SDS011;27177;22.262;114.192;2022-09-09T17:55:14;18.25;;;16.30;;
41434;SDS011;27177;22.262;114.192;2022-09-09T17:57:42;19.13;;;16.25;;
41434;SDS011;27177;22.262;114.192;2022-09-09T18:00:09;19.15;;;17.00;;
41434;SDS011;27177;22.262;114.192;2022-09-09T18:02:37;19.73;;;16.95;;
41434;SDS011;27177;22.262;114.192;2022-09-09T18:05:04;19.95;;;17.45;;
41434;SDS011;27177;22.262;114.192;2022-09-09T18:07:31;21.80;;;17.23;;
41434;SDS011;27177;22.262;114.192;2022-09-09T18:09:58;23.00;;;18.08;;
41434;SDS011;27177;22.262;114.192;2022-09-09T18:12:25;22.00;;;18.02;;
41434;SDS011;27177;22.262;114.192;2022-09-09T18:14:53;20.95;;;17.60;;
41434;SDS011;27177;22.262;114.192;2022-09-09T18:17:20;20.17;;;16.58;;
41434;SDS011;27177;22.262;114.192;2022-09-09T18:19:47;22.75;;;17.63;;
41434;SDS011;27177;22.262;114.192;2022-09-09T18:22:14;19.80;;;17.52;;
41434;SDS011;27177;22.262;114.192;2022-09-09T18:24:44;22.98;;;17.17;;
41434;SDS011;27177;22.262;114.192;2022-09-09T18:27:12;22.23;;;17.42;;
41434;SDS011;27177;22.262;114.192;2022-09-09T18:29:40;19.05;;;16.65;;
41434;SDS011;27177;22.262;114.192;2022-09-09T18:32:07;21.25;;;17.63;;
41434;SDS011;27177;22.262;114.192;2022-09-09T18:34:34;20.20;;;16.50;;
41434;SDS011;27177;22.262;114.192;2022-09-09T18:37:01;22.48;;;17.83;;
41434;SDS011;27177;22.262;114.192;2022-09-09T18:39:29;19.30;;;16.67;;
41434;SDS011;27177;22.262;114.192;2022-09-09T18:41:57;20.25;;;16.45;;
41434;SDS011;27177;22.262;114.192;2022-09-09T18:44:27;21.90;;;17.13;;
41434;SDS011;27177;22.262;114.192;2022-09-09T18:46:55;24.08;;;17.42;;
41434;SDS011;27177;22.262;114.192;2022-09-09T18:49:22;19.63;;;15.88;;
41434;SDS011;27177;22.262;114.192;2022-09-09T18:51:51;23.92;;;17.58;;
41434;SDS011;27177;22.262;114.192;2022-09-09T18:54:19;20.13;;;17.23;;
41434;SDS011;27177;22.262;114.192;2022-09-09T18:56:48;19.92;;;17.80;;
41434;SDS011;27177;22.262;114.192;2022-09-09T18:59:16;23.02;;;17.13;;
41434;SDS011;27177;22.262;114.192;2022-09-09T19:01:45;21.90;;;16.67;;
41434;SDS011;27177;22.262;114.192;2022-09-09T19:04:15;20.48;;;17.20;;
41434;SDS011;27177;22.262;114.192;2022-09-09T19:06:44;20.83;;;15.90;;
41434;SDS011;27177;22.262;114.192;2022-09-09T19:09:14;20.30;;;17.58;;
41434;SDS011;27177;22.262;114.192;2022-09-09T19:11:43;20.90;;;16.52;;
41434;SDS011;27177;22.262;114.192;2022-09-09T19:14:11;19.25;;;17.25;;
41434;SDS011;27177;22.262;114.192;2022-09-09T19:16:40;22.45;;;17.73;;
41434;SDS011;27177;22.262;114.192;2022-09-09T19:19:14;21.55;;;17.88;;
41434;SDS011;27177;22.262;114.192;2022-09-09T19:21:46;23.20;;;17.75;;
41434;SDS011;27177;22.262;114.192;2022-09-09T19:24:15;19.23;;;17.23;;
41434;SDS011;27177;22.262;114.192;2022-09-09T19:26:45;20.23;;;17.65;;
41434;SDS011;27177;22.262;114.192;2022-09-09T19:29:21;20.92;;;17.45;;
41434;SDS011;27177;22.262;114.192;2022-09-09T19:31:49;21.17;;;17.08;;
41434;SDS011;27177;22.262;114.192;2022-09-09T19:34:17;24.20;;;18.02;;
41434;SDS011;27177;22.262;114.192;2022-09-09T19:36:45;22.90;;;17.88;;
41434;SDS011;27177;22.262;114.192;2022-09-09T19:39:12;22.02;;;19.13;;
41434;SDS011;27177;22.262;114.192;2022-09-09T19:41:40;30.48;;;17.35;;
41434;SDS011;27177;22.262;114.192;2022-09-09T19:44:09;20.27;;;18.10;;
41434;SDS011;27177;22.262;114.192;2022-09-09T19:46:38;22.52;;;18.02;;
41434;SDS011;27177;22.262;114.192;2022-09-09T19:49:07;24.55;;;17.38;;
41434;SDS011;27177;22.262;114.192;2022-09-09T19:51:35;19.60;;;17.40;;
41434;SDS011;27177;22.262;114.192;2022-09-09T19:54:03;23.08;;;18.65;;
41434;SDS011;27177;22.262;114.192;2022-09-09T19:56:33;22.40;;;18.20;;
41434;SDS011;27177;22.262;114.192;2022-09-09T19:59:02;26.30;;;18.30;;
41434;SDS011;27177;22.262;114.192;2022-09-09T20:01:31;21.92;;;18.90;;
41434;SDS011;27177;22.262;114.192;2022-09-09T20:04:01;22.27;;;17.63;;
41434;SDS011;27177;22.262;114.192;2022-09-09T20:06:30;24.15;;;18.70;;
41434;SDS011;27177;22.262;114.192;2022-09-09T20:08:59;21.77;;;18.50;;
41434;SDS011;27177;22.262;114.192;2022-09-09T20:11:28;20.35;;;18.02;;
41434;SDS011;27177;22.262;114.192;2022-09-09T20:13:54;22.40;;;18.23;;
41434;SDS011;27177;22.262;114.192;2022-09-09T20:16:22;20.38;;;18.17;;
41434;SDS011;27177;22.262;114.192;2022-09-09T20:18:52;22.50;;;19.02;;
41434;SDS011;27177;22.262;114.192;2022-09-09T20:21:22;23.58;;;18.33;;
41434;SDS011;27177;22.262;114.192;2022-09-09T20:23:52;25.58;;;18.65;;
41434;SDS011;27177;22.262;114.192;2022-09-09T20:26:21;21.05;;;18.80;;